KHPN 221945Z 2220/2318 31008KT P6SM FEW250
FM230000 VRB02KT P6SM SKC
FM231500 17008KT P6SM SCT250 AMD NOT SKED
From batch tds/tafs/production/2024/4/22/h20_m00_tafs.cache.xml.gz
Issued (30 days ago)
Forecasts
2220/2300 31008KT 6+SM FEW25000

---
fcst_time_to: '2024-04-23T00:00:00Z'
sky_condition:
- sky_cover: FEW
  cloud_base_ft_agl: '25000'
wind_speed_kt: '8'
fcst_time_from: '2024-04-22T20:00:00Z'
wind_dir_degrees: '310'
visibility_statute_mi: 6+

FM230000 VRB02KT 6+SM SKC

---
fcst_time_to: '2024-04-23T15:00:00Z'
sky_condition:
- sky_cover: SKC
wind_speed_kt: '2'
fcst_time_from: '2024-04-23T00:00:00Z'
change_indicator: FM
wind_dir_degrees: VRB
visibility_statute_mi: 6+

FM231500 17008KT 6+SM SCT25000

---
fcst_time_to: '2024-04-23T18:00:00Z'
sky_condition:
- sky_cover: SCT
  cloud_base_ft_agl: '25000'
wind_speed_kt: '8'
fcst_time_from: '2024-04-23T15:00:00Z'
change_indicator: FM
wind_dir_degrees: '170'
visibility_statute_mi: 6+

talk